Time,TemperatureF,DewpointF,PressureIn,WindDirection,WindDirectionDegrees,WindSpeedMPH,WindSpeedGustMPH,Humidity,HourlyPrecipIn,Conditions,Clouds,dailyrainin,SoftwareType,DateUTC
2013-02-08 00:13:00,46.7,30.0,30.06,NNW,329,2.0,8.0,52,0.00,,,0.00,weatherlink.com 1.10,2013-02-07 23:13:00,
2013-02-08 00:28:00,46.7,30.0,30.06,NNW,346,5.0,12.0,52,0.00,,,0.00,weatherlink.com 1.10,2013-02-07 23:28:00,
2013-02-08 00:44:00,46.7,31.0,30.06,WSW,248,1.0,5.0,54,0.00,,,0.00,weatherlink.com 1.10,2013-02-07 23:44:00,
2013-02-08 00:59:00,46.4,31.0,30.06,ENE,63,0.0,4.0,55,0.00,,,0.00,weatherlink.com 1.10,2013-02-07 23:59:00,
2013-02-08 01:14:00,46.4,31.0,30.06,WNW,283,1.0,3.0,56,0.00,,,0.00,weatherlink.com 1.10,2013-02-08 00:14:00,
2013-02-08 01:29:00,46.5,31.0,30.05,West,277,2.0,3.0,56,0.00,,,0.00,weatherlink.com 1.10,2013-02-08 00:29:00,
2013-02-08 01:44:00,46.3,32.0,30.05,WNW,291,1.0,2.0,57,0.00,,,0.00,weatherlink.com 1.10,2013-02-08 00:44:00,
2013-02-08 01:59:00,46.0,32.0,30.04,WNW,283,1.0,2.0,58,0.00,,,0.00,weatherlink.com 1.10,2013-02-08 00:59:00,
2013-02-08 02:14:00,45.9,32.0,30.04,NW,319,0.0,5.0,59,0.00,,,0.00,weatherlink.com 1.10,2013-02-08 01:14:00,
2013-02-08 02:29:00,45.1,32.0,30.03,NW,314,3.0,4.0,61,0.00,,,0.00,weatherlink.com 1.10,2013-02-08 01:29:00,
2013-02-08 02:44:00,44.7,32.0,30.03,NNW,331,1.0,5.0,62,0.00,,,0.00,weatherlink.com 1.10,2013-02-08 01:44:00,
2013-02-08 02:59:00,45.2,33.0,30.02,NW,312,2.0,4.0,62,0.00,,,0.00,weatherlink.com 1.10,2013-02-08 01:59:00,
2013-02-08 03:14:00,45.3,33.0,30.02,WNW,291,0.0,0.0,62,0.00,,,0.00,weatherlink.com 1.10,2013-02-08 02:14:00,
2013-02-08 03:29:00,45.4,33.0,30.01,SW,225,1.0,1.0,63,0.00,,,0.00,weatherlink.com 1.10,2013-02-08 02:29:00,
2013-02-08 03:44:00,45.0,34.0,30.00,SSW,208,0.0,2.0,65,0.00,,,0.00,weatherlink.com 1.10,2013-02-08 02:44:00,
2013-02-08 03:59:00,44.7,35.0,30.00,WSW,253,2.0,2.0,69,0.00,,,0.00,weatherlink.com 1.10,2013-02-08 02:59:00,
2013-02-08 04:14:00,44.6,36.0,30.00,WSW,248,1.0,2.0,72,0.00,,,0.00,weatherlink.com 1.10,2013-02-08 03:14:00,
2013-02-08 04:29:00,44.1,36.0,29.98,West,274,3.0,3.0,74,0.00,,,0.00,weatherlink.com 1.10,2013-02-08 03:29:00,
2013-02-08 04:44:00,44.3,37.0,29.98,WNW,284,3.0,6.0,75,0.00,,,0.00,weatherlink.com 1.10,2013-02-08 03:44:00,
2013-02-08 04:59:00,43.7,36.0,29.98,SSE,167,0.0,1.0,74,0.00,,,0.00,weatherlink.com 1.10,2013-02-08 03:59:00,
2013-02-08 05:14:00,43.6,37.0,29.97,WSW,252,1.0,3.0,76,0.00,,,0.00,weatherlink.com 1.10,2013-02-08 04:14:00,
2013-02-08 05:29:00,43.5,36.0,29.98,SW,231,0.0,1.0,76,0.00,,,0.00,weatherlink.com 1.10,2013-02-08 04:29:00,
2013-02-08 05:44:00,43.8,36.0,29.97,SW,229,1.0,2.0,75,0.00,,,0.00,weatherlink.com 1.10,2013-02-08 04:44:00,
2013-02-08 05:59:00,42.8,36.0,29.96,SSE,158,1.0,4.0,76,0.00,,,0.00,weatherlink.com 1.10,2013-02-08 04:59:00,
2013-02-08 06:14:00,43.2,36.0,29.96,West,267,0.0,3.0,76,0.00,,,0.00,weatherlink.com 1.10,2013-02-08 05:14:00,
2013-02-08 06:29:00,43.4,36.0,29.96,WSW,250,1.0,3.0,75,0.00,,,0.00,weatherlink.com 1.10,2013-02-08 05:29:00,
2013-02-08 06:44:00,43.6,36.0,29.95,SSW,211,3.0,3.0,74,0.00,,,0.00,weatherlink.com 1.10,2013-02-08 05:44:00,
2013-02-08 06:59:00,43.8,36.0,29.95,SW,236,1.0,2.0,73,0.00,,,0.00,weatherlink.com 1.10,2013-02-08 05:59:00,
2013-02-08 07:14:00,43.2,36.0,29.96,WNW,286,3.0,14.0,76,0.00,,,0.00,weatherlink.com 1.10,2013-02-08 06:14:00,
2013-02-08 07:29:00,42.4,36.0,29.95,NE,36,0.0,2.0,78,0.00,,,0.00,weatherlink.com 1.10,2013-02-08 06:29:00,
2013-02-08 07:44:00,42.3,37.0,29.95,SW,233,2.0,2.0,80,0.00,,,0.00,weatherlink.com 1.10,2013-02-08 06:44:00,
2013-02-08 08:00:00,42.3,37.0,29.95,SW,233,1.0,3.0,80,0.00,,,0.00,weatherlink.com 1.10,2013-02-08 07:00:00,
2013-02-08 08:15:00,43.4,38.0,29.95,West,277,5.0,9.0,81,0.00,,,0.00,weatherlink.com 1.10,2013-02-08 07:15:00,
2013-02-08 08:30:00,43.3,39.0,29.94,NW,319,2.0,3.0,83,0.01,,,0.01,weatherlink.com 1.10,2013-02-08 07:30:00,
2013-02-08 08:45:00,44.1,38.0,29.94,WSW,256,4.0,10.0,80,0.01,,,0.01,weatherlink.com 1.10,2013-02-08 07:45:00,
2013-02-08 09:00:00,45.0,39.0,29.94,NW,304,3.0,13.0,79,0.01,,,0.01,weatherlink.com 1.10,2013-02-08 08:00:00,
2013-02-08 09:15:00,47.1,39.0,29.94,NW,314,5.0,12.0,73,0.01,,,0.01,weatherlink.com 1.10,2013-02-08 08:15:00,
2013-02-08 09:30:00,47.6,39.0,29.93,WNW,297,14.0,14.0,72,0.00,,,0.01,weatherlink.com 1.10,2013-02-08 08:30:00,
2013-02-08 09:45:00,47.7,39.0,29.93,NW,307,8.0,14.0,72,0.00,,,0.01,weatherlink.com 1.10,2013-02-08 08:45:00,
2013-02-08 10:00:00,48.0,39.0,29.93,WNW,293,10.0,15.0,71,0.00,,,0.01,weatherlink.com 1.10,2013-02-08 09:00:00,
2013-02-08 10:15:00,48.1,39.0,29.93,WNW,300,6.0,14.0,71,0.00,,,0.01,weatherlink.com 1.10,2013-02-08 09:15:00,
2013-02-08 10:30:00,48.4,39.0,29.93,WNW,285,9.0,18.0,69,0.00,,,0.01,weatherlink.com 1.10,2013-02-08 09:30:00,
2013-02-08 10:45:00,48.5,39.0,29.93,NNW,342,5.0,18.0,69,0.00,,,0.01,weatherlink.com 1.10,2013-02-08 09:45:00,
2013-02-08 11:00:00,48.4,37.0,29.94,WSW,245,10.0,23.0,66,0.00,,,0.01,weatherlink.com 1.10,2013-02-08 10:00:00,
2013-02-08 11:15:00,48.9,38.0,29.94,NW,305,16.0,20.0,67,0.00,,,0.01,weatherlink.com 1.10,2013-02-08 10:15:00,
2013-02-08 11:30:00,49.1,38.0,29.94,West,280,2.0,18.0,66,0.00,,,0.01,weatherlink.com 1.10,2013-02-08 10:30:00,
2013-02-08 11:45:00,49.2,39.0,29.94,WNW,298,9.0,14.0,68,0.00,,,0.01,weatherlink.com 1.10,2013-02-08 10:45:00,
2013-02-08 12:00:00,49.1,38.0,29.93,NW,312,6.0,14.0,66,0.00,,,0.01,weatherlink.com 1.10,2013-02-08 11:00:00,
2013-02-08 12:15:00,49.8,38.0,29.93,North,9,12.0,12.0,63,0.00,,,0.01,weatherlink.com 1.10,2013-02-08 11:15:00,
2013-02-08 12:30:00,50.4,36.0,29.93,NNW,329,9.0,19.0,58,0.00,,,0.01,weatherlink.com 1.10,2013-02-08 11:30:00,
2013-02-08 12:45:00,50.9,36.0,29.92,NW,305,7.0,14.0,57,0.00,,,0.01,weatherlink.com 1.10,2013-02-08 11:45:00,
2013-02-08 13:00:00,51.3,38.0,29.91,NNW,329,1.0,15.0,60,0.00,,,0.01,weatherlink.com 1.10,2013-02-08 12:00:00,
2013-02-08 13:15:00,50.8,38.0,29.91,WNW,303,10.0,12.0,62,0.00,,,0.01,weatherlink.com 1.10,2013-02-08 12:15:00,
2013-02-08 13:30:00,50.5,38.0,29.90,WNW,285,8.0,13.0,63,0.00,,,0.01,weatherlink.com 1.10,2013-02-08 12:30:00,
2013-02-08 13:45:00,50.6,39.0,29.89,NNW,332,7.0,10.0,64,0.00,,,0.01,weatherlink.com 1.10,2013-02-08 12:45:00,
2013-02-08 14:00:00,50.6,39.0,29.89,West,271,2.0,8.0,65,0.00,,,0.01,weatherlink.com 1.10,2013-02-08 13:00:00,
2013-02-08 14:15:00,50.7,39.0,29.88,NE,43,1.0,9.0,65,0.00,,,0.01,weatherlink.com 1.10,2013-02-08 13:15:00,
2013-02-08 14:30:00,51.2,39.0,29.88,WNW,288,8.0,13.0,63,0.00,,,0.01,weatherlink.com 1.10,2013-02-08 13:30:00,
2013-02-08 14:45:00,51.3,38.0,29.88,WNW,301,6.0,11.0,61,0.00,,,0.01,weatherlink.com 1.10,2013-02-08 13:45:00,
2013-02-08 15:00:00,51.0,39.0,29.87,NNW,335,4.0,10.0,63,0.00,,,0.01,weatherlink.com 1.10,2013-02-08 14:00:00,
2013-02-08 15:15:00,50.6,39.0,29.87,WNW,298,10.0,10.0,64,0.00,,,0.01,weatherlink.com 1.10,2013-02-08 14:15:00,
2013-02-08 15:30:00,50.2,40.0,29.87,NNW,335,4.0,11.0,67,0.00,,,0.01,weatherlink.com 1.10,2013-02-08 14:30:00,
2013-02-08 15:45:00,50.1,39.0,29.87,North,359,7.0,11.0,67,0.00,,,0.01,weatherlink.com 1.10,2013-02-08 14:45:00,
2013-02-08 16:00:00,49.8,38.0,29.87,NNW,331,3.0,12.0,65,0.00,,,0.01,weatherlink.com 1.10,2013-02-08 15:00:00,
2013-02-08 16:15:00,49.7,39.0,29.87,NNW,331,7.0,10.0,66,0.00,,,0.01,weatherlink.com 1.10,2013-02-08 15:15:00,
2013-02-08 16:30:00,49.5,39.0,29.87,NNW,331,4.0,6.0,67,0.00,,,0.01,weatherlink.com 1.10,2013-02-08 15:30:00,
2013-02-08 16:45:00,49.1,38.0,29.87,NNW,343,4.0,6.0,67,0.00,,,0.01,weatherlink.com 1.10,2013-02-08 15:45:00,
2013-02-08 17:00:00,49.3,38.0,29.87,NNW,332,6.0,8.0,66,0.00,,,0.01,weatherlink.com 1.10,2013-02-08 16:00:00,
2013-02-08 17:15:00,48.8,37.0,29.87,NNW,336,5.0,8.0,65,0.00,,,0.01,weatherlink.com 1.10,2013-02-08 16:15:00,
2013-02-08 17:30:00,48.0,37.0,29.87,NW,307,3.0,7.0,67,0.00,,,0.01,weatherlink.com 1.10,2013-02-08 16:30:00,
2013-02-08 17:45:00,47.7,38.0,29.88,NW,316,4.0,10.0,68,0.00,,,0.01,weatherlink.com 1.10,2013-02-08 16:45:00,
2013-02-08 18:00:00,47.7,38.0,29.88,NNE,15,1.0,7.0,69,0.00,,,0.01,weatherlink.com 1.10,2013-02-08 17:00:00,
2013-02-08 18:15:00,47.5,38.0,29.88,North,1,1.0,4.0,69,0.00,,,0.01,weatherlink.com 1.10,2013-02-08 17:15:00,
2013-02-08 18:30:00,47.1,38.0,29.88,NNW,348,1.0,2.0,70,0.00,,,0.01,weatherlink.com 1.10,2013-02-08 17:30:00,
2013-02-08 18:46:00,46.7,38.0,29.88,North,349,2.0,4.0,71,0.00,,,0.01,weatherlink.com 1.10,2013-02-08 17:46:00,
2013-02-08 19:01:00,46.4,37.0,29.89,West,278,0.0,3.0,71,0.00,,,0.01,weatherlink.com 1.10,2013-02-08 18:01:00,
2013-02-08 19:16:00,46.3,37.0,29.90,NW,319,1.0,3.0,71,0.00,,,0.01,weatherlink.com 1.10,2013-02-08 18:16:00,
2013-02-08 19:31:00,45.0,37.0,29.90,NNE,32,1.0,3.0,73,0.00,,,0.01,weatherlink.com 1.10,2013-02-08 18:31:00,
2013-02-08 19:46:00,44.8,37.0,29.91,NW,304,1.0,2.0,75,0.00,,,0.01,weatherlink.com 1.10,2013-02-08 18:46:00,
2013-02-08 20:01:00,44.8,37.0,29.91,NNW,336,1.0,5.0,74,0.00,,,0.01,weatherlink.com 1.10,2013-02-08 19:01:00,
2013-02-08 20:16:00,43.8,37.0,29.91,NNE,12,4.0,7.0,76,0.00,,,0.01,weatherlink.com 1.10,2013-02-08 19:16:00,
2013-02-08 20:31:00,44.7,37.0,29.92,NW,326,1.0,7.0,74,0.00,,,0.01,weatherlink.com 1.10,2013-02-08 19:31:00,
2013-02-08 20:46:00,44.5,37.0,29.93,ENE,63,2.0,8.0,74,0.00,,,0.01,weatherlink.com 1.10,2013-02-08 19:46:00,
2013-02-08 21:01:00,43.8,37.0,29.93,NE,48,0.0,1.0,76,0.00,,,0.01,weatherlink.com 1.10,2013-02-08 20:01:00,
2013-02-08 21:16:00,43.1,36.0,29.93,North,359,0.0,3.0,76,0.00,,,0.01,weatherlink.com 1.10,2013-02-08 20:16:00,
2013-02-08 21:31:00,43.1,37.0,29.94,NNE,32,2.0,2.0,80,0.00,,,0.01,weatherlink.com 1.10,2013-02-08 20:31:00,
2013-02-08 21:46:00,43.6,38.0,29.94,ENE,70,6.0,6.0,79,0.00,,,0.01,weatherlink.com 1.10,2013-02-08 20:46:00,
2013-02-08 22:01:00,43.3,38.0,29.95,NE,41,5.0,9.0,82,0.00,,,0.01,weatherlink.com 1.10,2013-02-08 21:01:00,
2013-02-08 22:16:00,43.2,39.0,29.95,NE,37,8.0,9.0,84,0.00,,,0.01,weatherlink.com 1.10,2013-02-08 21:16:00,
2013-02-08 22:31:00,43.0,39.0,29.95,NE,39,9.0,11.0,85,0.00,,,0.01,weatherlink.com 1.10,2013-02-08 21:31:00,
2013-02-08 22:46:00,42.7,39.0,29.96,NE,44,4.0,9.0,85,0.00,,,0.01,weatherlink.com 1.10,2013-02-08 21:46:00,
2013-02-08 23:01:00,42.7,39.0,29.96,NE,50,5.0,8.0,85,0.00,,,0.01,weatherlink.com 1.10,2013-02-08 22:01:00,
2013-02-08 23:16:00,42.7,39.0,29.96,NE,48,4.0,6.0,85,0.00,,,0.01,weatherlink.com 1.10,2013-02-08 22:16:00,
2013-02-08 23:31:00,42.9,38.0,29.97,NE,52,5.0,7.0,84,0.00,,,0.01,weatherlink.com 1.10,2013-02-08 22:31:00,
2013-02-08 23:46:00,43.5,39.0,29.98,ENE,60,10.0,14.0,84,0.00,,,0.01,weatherlink.com 1.10,2013-02-08 22:46:00,